Latest Weather Observations for Grove

IDT60801

Issued at 4:05 am EST Thursday 21 August 2014 (issued every 30 minutes, with the page automatically refreshed every 10 minutes)

About weather observations | Map of weather stations | Latest weather observations for TAS | Other Formats
Station Details ID: 094220 Name: GROVE (RESEARCH STATION) Lat: -42.99 Lon: 147.07 Height: 65.0 m
Data from the previous 72 hours. | See also: Recent months at Grove
Date/Time
EST
Temp
°C
App
Temp
°C
Dew
Point
Rel
Hum
%
Delta-T
°C
Wind Press
QNH
hPa
Press
MSL
hPa
Rain
since 9 am
mm
Dir
 
Spd
km/h
Gust
km/h
Spd
kts
Gust
kts
21/04:00am -0.4 - - - - ENE 6 7 3 4 - - 0.0
21/03:30am 0.0 - - - - N 2 6 1 3 - - 0.0
21/03:00am 0.2 - - - - NNE 7 9 4 5 - - 0.0
21/02:30am 0.6 -2.4 0.6 100 0.0 NE 6 7 3 4 - - 0.0
21/02:00am 1.0 -2.0 0.7 98 0.1 N 6 7 3 4 - - 0.0
21/01:30am 1.4 -1.5 1.4 100 0.0 NE 6 6 3 3 - - 0.0
21/01:00am 2.0 -1.0 1.7 98 0.1 NE 7 7 4 4 - - 0.0
21/12:30am 1.9 -1.1 1.9 100 0.0 NNE 7 9 4 5 - - 0.0
21/12:00am 0.9 -2.3 0.9 100 0.0 NE 7 7 4 4 - - 0.0
 
Date/Time
EST
Temp
°C
App
Temp
°C
Dew
Point
Rel
Hum
%
Delta-T
°C
Wind Press
QNH
hPa
Press
MSL
hPa
Rain
since 9 am
mm
Dir
 
Spd
km/h
Gust
km/h
Spd
kts
Gust
kts
20/11:30pm 0.6 -2.4 0.6 100 0.0 NE 6 7 3 4 - - 0.0
20/11:00pm 1.1 -0.7 1.1 100 0.0 CALM 0 0 0 0 - - 0.0
20/10:30pm 1.3 -0.5 1.0 98 0.1 CALM 0 4 0 2 - - 0.0
20/10:00pm 1.7 -0.8 1.4 98 0.1 NNE 4 6 2 3 - - 0.0
20/09:30pm 2.2 -0.6 1.9 98 0.1 NNE 6 7 3 4 - - 0.0
20/09:00pm 2.8 0.1 2.5 98 0.1 NE 6 7 3 4 - - 0.0
20/08:30pm 3.2 1.2 2.4 94 0.3 NE 2 7 1 4 - - 0.0
20/08:00pm 3.5 0.3 3.0 97 0.2 NNE 9 9 5 5 - - 0.0
20/07:30pm 4.2 1.7 3.7 97 0.2 NE 6 6 3 3 - - 0.0
20/07:00pm 5.2 3.2 4.3 94 0.4 NNE 4 9 2 5 - - 0.0
20/06:30pm 6.8 5.0 5.2 89 0.7 N 4 6 2 3 - - 0.0
20/06:00pm 8.8 7.3 5.2 78 1.6 S 2 7 1 4 - - 0.0
20/05:30pm 9.6 7.5 5.7 76 1.8 N 6 7 3 4 - - 0.0
20/05:00pm 11.2 9.2 4.6 64 3.0 ENE 4 9 2 5 - - 0.0
20/04:30pm 11.9 9.4 4.9 62 3.2 ESE 7 15 4 8 - - 0.0
20/04:00pm 12.8 11.4 5.3 60 3.5 N 2 6 1 3 - - 0.0
20/03:30pm 12.8 11.1 5.8 62 3.3 N 4 7 2 4 - - 0.0
20/03:00pm 12.8 10.3 3.7 54 4.1 S 6 9 3 5 - - 0.0
20/02:30pm 13.2 10.7 4.8 56 3.9 WSW 7 9 4 5 - - 0.0
20/02:00pm 12.9 10.4 3.6 53 4.2 WSW 6 7 3 4 - - 0.0
20/01:30pm 12.9 10.2 3.6 53 4.2 S 7 11 4 6 - - 0.0
20/01:00pm 12.2 9.5 3.7 56 3.8 S 7 11 4 6 - - 0.0
20/12:30pm 13.3 10.7 4.4 55 4.1 WSW 7 13 4 7 - - 0.0
20/12:00pm 11.9 9.4 4.7 61 3.3 WSW 7 15 4 8 - - 0.0
20/11:30am 12.6 10.7 5.0 60 3.5 NNE 4 7 2 4 - - 0.0
20/11:00am 10.5 8.6 4.7 67 2.6 SE 4 7 2 4 - - 0.0
20/10:30am 9.1 8.0 5.3 77 1.7 CALM 0 2 0 1 - - 0.0
20/10:00am 7.9 6.6 4.0 76 1.7 CALM 0 0 0 0 - - 0.0
20/09:30am 5.5 3.7 3.6 87 0.8 E 2 6 1 3 - - 0.0
20/09:00am 2.8 1.1 2.0 94 0.3 CALM 0 0 0 0 - - 0.0
20/08:30am 0.6 - - - - CALM 0 0 0 0 - - 0.0
20/08:00am -0.2 - - - - ENE 6 7 3 4 - - 0.0
20/07:30am -1.3 - - - - CALM 0 0 0 0 - - 0.0
20/07:00am -1.7 - - - - N 7 9 4 5 - - 0.0
20/06:30am -1.7 - - - - NE 9 9 5 5 - - 0.0
20/06:00am -1.8 - - - - NNE 0 0 0 0 - - 0.0
20/05:30am -1.5 - - - - CALM 0 0 0 0 - - 0.0
20/05:00am -1.7 - - - - N 6 7 3 4 - - 0.0
20/04:30am -0.9 - - - - NE 7 9 4 5 - - 0.0
20/04:00am -1.1 - - - - NE 6 7 3 4 - - 0.0
20/03:30am -0.8 - - - - NNE 6 6 3 3 - - 0.0
20/03:00am -0.6 - - - - N 7 9 4 5 - - 0.0
20/02:30am -0.2 - - - - NE 7 9 4 5 - - 0.0
20/02:00am -0.2 - - - - ENE 6 7 3 4 - - 0.0
20/01:30am 0.0 - - - - CALM 0 0 0 0 - - 0.0
20/01:00am 0.4 - - - - N 6 7 3 4 - - 0.0
20/12:30am 0.6 -2.6 0.6 100 0.0 NNE 7 9 4 5 - - 0.0
20/12:00am 1.4 -1.6 1.1 98 0.1 NE 6 9 3 5 - - 0.0
 
Date/Time
EST
Temp
°C
App
Temp
°C
Dew
Point
Rel
Hum
%
Delta-T
°C
Wind Press
QNH
hPa
Press
MSL
hPa
Rain
since 9 am
mm
Dir
 
Spd
km/h
Gust
km/h
Spd
kts
Gust
kts
19/11:30pm 1.3 -1.7 1.0 98 0.1 NNE 6 7 3 4 - - 0.0
19/11:00pm 1.6 -1.3 1.3 98 0.1 NNE 6 7 3 4 - - 0.0
19/10:30pm 2.6 0.2 2.1 96 0.2 NE 4 9 2 5 - - 0.0
19/10:00pm 2.9 0.2 2.6 98 0.1 NNE 6 7 3 4 - - 0.0
19/09:30pm 4.0 2.6 3.3 95 0.3 CALM 0 0 0 0 - - 0.0
19/09:00pm 5.1 3.8 3.9 92 0.5 CALM 0 0 0 0 - - 0.0
19/08:30pm 5.4 2.9 3.7 89 0.7 NNE 6 7 3 4 - - 0.0
19/08:00pm 6.2 4.9 3.9 85 1.0 CALM 0 4 0 2 - - 0.0
19/07:30pm 7.6 5.0 4.1 78 1.5 SW 7 11 4 6 - - 0.0
19/07:00pm 8.5 5.9 4.2 74 1.9 SW 7 11 4 6 - - 0.0
19/06:30pm 8.8 5.8 4.0 72 2.1 SW 9 11 5 6 - - 0.0
19/06:00pm 8.7 6.1 4.4 74 1.9 WSW 7 9 4 5 - - 0.0
19/05:30pm 9.6 6.2 4.2 69 2.4 SW 11 15 6 8 - - 0.0
19/05:00pm 10.1 6.3 4.0 66 2.7 WSW 13 19 7 10 - - 0.0
19/04:30pm 10.7 7.3 4.0 63 3.0 SW 11 19 6 10 - - 0.0
19/04:00pm 10.6 6.6 4.9 68 2.6 SW 15 20 8 11 - - 0.0
19/03:30pm 11.4 8.1 4.6 63 3.1 WSW 11 19 6 10 - - 0.0
19/03:00pm 11.2 7.6 5.1 66 2.8 WSW 13 15 7 8 - - 0.0
19/02:30pm 11.3 8.0 4.4 62 3.1 SW 11 17 6 9 - - 0.0
19/02:00pm 11.4 7.6 3.8 59 3.4 SSW 13 20 7 11 - - 0.0
19/01:30pm 11.7 9.1 4.2 60 3.4 SSW 7 15 4 8 - - 0.0
19/01:00pm 11.4 8.0 4.0 60 3.3 SSW 11 17 6 9 - - 0.0
19/12:30pm 11.0 8.4 4.1 62 3.1 SW 7 11 4 6 - - 0.0
19/12:00pm 9.8 7.2 3.4 64 2.8 SW 6 9 3 5 - - 0.0
19/11:30am 9.3 6.8 3.8 68 2.4 SSW 6 7 3 4 - - 0.0
19/11:00am 7.9 5.4 3.5 74 1.9 SE 6 9 3 5 - - 0.0
19/10:30am 6.4 3.8 3.1 79 1.4 W 6 9 3 5 - - 0.0
19/10:00am 5.1 2.3 2.9 86 0.9 SW 7 9 4 5 - - 0.0
19/09:30am 3.7 1.0 2.5 92 0.5 SW 6 7 3 4 - - 0.0
19/09:00am 3.0 1.1 0.3 82 1.0 CALM 0 0 0 0 - - 0.0
19/08:30am 0.4 - - - - NNE 4 7 2 4 - - 0.0
19/08:00am -1.4 - - - - N 2 7 1 4 - - 0.0
19/07:30am -2.1 - - - - NE 6 7 3 4 - - 0.0
19/07:00am -2.1 - - - - NE 4 6 2 3 - - 0.0
19/06:30am -2.0 - - - - NE 6 7 3 4 - - 0.0
19/06:00am -2.0 - - - - NNE 2 0 1 0 - - 0.0
19/05:30am -1.6 - - - - NNE 7 7 4 4 - - 0.0
19/05:00am -1.5 - - - - NNE 6 7 3 4 - - 0.0
19/04:30am -1.3 - - - - NE 6 7 3 4 - - 0.0
19/04:00am -1.3 - - - - CALM 0 0 0 0 - - 0.0
19/03:30am -0.8 - - - - CALM 0 0 0 0 - - 0.0
19/03:00am -0.3 - - - - CALM 0 0 0 0 - - 0.0
19/02:30am 0.4 -1.5 0.4 100 0.0 CALM 0 0 0 0 - - 0.0
19/02:00am 0.8 -1.1 0.5 98 0.1 CALM 0 0 0 0 - - 0.0
19/01:30am 1.3 -0.5 1.0 98 0.1 CALM 0 0 0 0 - - 0.0
19/01:00am 1.7 -0.1 1.4 98 0.1 CALM 0 0 0 0 - - 0.0
19/12:30am 1.8 0.0 1.5 98 0.1 CALM 0 0 0 0 - - 0.0
19/12:00am 1.9 0.1 1.4 96 0.2 CALM 0 0 0 0 - - 0.0
 
Date/Time
EST
Temp
°C
App
Temp
°C
Dew
Point
Rel
Hum
%
Delta-T
°C
Wind Press
QNH
hPa
Press
MSL
hPa
Rain
since 9 am
mm
Dir
 
Spd
km/h
Gust
km/h
Spd
kts
Gust
kts
18/11:30pm 1.9 -1.0 1.6 98 0.1 NNE 6 6 3 3 - - 0.0
18/11:00pm 1.8 0.0 1.5 98 0.1 CALM 0 0 0 0 - - 0.0
18/10:30pm 2.0 0.2 1.5 96 0.2 CALM 0 0 0 0 - - 0.0
18/10:00pm 1.8 0.0 1.5 98 0.1 CALM 0 0 0 0 - - 0.0
18/09:30pm 1.7 -0.1 1.4 98 0.1 CALM 0 0 0 0 - - 0.0
18/09:00pm 1.8 -1.1 1.5 98 0.1 NNE 6 7 3 4 - - 0.0
18/08:30pm 2.2 0.1 1.7 96 0.2 NNE 2 9 1 5 - - 0.0
18/08:00pm 2.2 -0.3 1.4 94 0.3 N 4 6 2 3 - - 0.0
18/07:30pm 2.7 -0.3 1.9 94 0.3 NNE 7 9 4 5 - - 0.0
18/07:00pm 3.6 1.7 2.6 93 0.4 NNE 2 7 1 4 - - 0.0
18/06:30pm 4.7 2.4 2.7 87 0.8 WNW 4 6 2 3 - - 0.0
18/06:00pm 5.9 3.2 3.8 86 0.9 N 7 9 4 5 - - 0.0
18/05:30pm 7.1 4.7 4.1 81 1.3 N 6 7 3 4 - - 0.0
18/05:00pm 9.5 6.9 3.3 65 2.7 W 6 7 3 4 - - 0.0
18/04:30pm 11.1 7.9 3.1 58 3.5 W 9 13 5 7 - - 0.0
18/04:00pm 13.5 11.3 1.1 43 5.3 SW 2 6 1 3 - - 0.0
18/03:30pm 12.1 8.9 0.6 45 4.8 SW 7 9 4 5 - - 0.0
18/03:00pm 12.7 9.0 0.2 42 5.2 W 9 11 5 6 - - 0.0
18/02:30pm 12.4 8.9 1.1 46 4.8 WSW 9 11 5 6 - - 0.0
18/02:00pm 13.1 10.7 2.4 48 4.7 WNW 4 7 2 4 - - 0.0
18/01:30pm 12.9 10.1 2.1 48 4.7 N 6 9 3 5 - - 0.0
18/01:00pm 12.0 9.0 2.0 50 4.3 NNW 7 11 4 6 - - 0.0
18/12:30pm 11.2 8.2 0.9 49 4.3 SSW 6 11 3 6 - - 0.0
18/12:00pm 10.5 7.4 1.1 52 3.9 WSW 7 11 4 6 - - 0.0
18/11:30am 9.1 6.4 2.8 64 2.7 WSW 6 7 3 4 - - 0.0
18/11:00am 7.1 5.6 2.8 74 1.8 CALM 0 0 0 0 - - 0.0
18/10:30am 6.3 4.8 3.2 80 1.3 CALM 0 0 0 0 - - 0.0
18/10:00am 4.8 3.3 3.1 89 0.7 CALM 0 2 0 1 - - 0.0
18/09:30am 2.7 - - - - CALM 0 0 0 0 - - 0.0
18/09:00am 1.3 - - - - CALM 0 0 0 0 - - 0.2
18/08:30am 0.0 - - - - CALM 0 7 0 4 - - 0.0
18/08:00am -0.7 - - - - NE 6 7 3 4 - - 0.0
18/07:30am -1.6 - - - - NNE 4 7 2 4 - - 0.0
18/07:00am -1.9 - - - - CALM 0 6 0 3 - - 0.0
18/06:30am -1.9 - - - - CALM 0 2 0 1 - - 0.0
18/06:00am -1.5 - - - - NNE 6 6 3 3 - - 0.0
18/05:30am -1.3 - - - - NNE 6 7 3 4 - - 0.0
18/05:00am -1.1 - - - - NNE 6 7 3 4 - - 0.0
18/04:30am -0.9 - - - - N 6 9 3 5 - - 0.0

Other Formats:

Comma delimited format used in spreadsheet applications
http://www.bom.gov.au/fwo/IDT60801/IDT60801.95977.axf

JavaScript Object Notation format (JSON) in row-major order
http://www.bom.gov.au/fwo/IDT60801/IDT60801.95977.json